Αρχική σελίδα
METAR-TAF:

METAR-TAF

Αεροδρόμια :

Smith Field

Siloam Springs, Αρκάνσας, Ηνωμένες Πολιτείες Αμερικής

γεωγραφικό πλάτος: 36-12N, γεωγραφικό μήκος: 094-29W, υψόμετρο: 300 μ

Παρών καιρός

Η αναφορά έγινε 30 λεπτά πριν, στις 12:56 UTC
Άνεμος 5 kt από Α
Θερμοκρασία 2°C
Υγρασία 93%
Πίεση 1024 hPa
Ορατότητα: 16.1 χλμ
Καθαρός ουρανός

METAR: KSLG 161256Z AUTO 08005KT 10SM CLR 02/01 A3024 RMK AO2 SLP245 T00170006 FZRANO

Χρόνος: 07:26 (13:26 UTC)


TAF: λείπει

Μετεωρολογικές αναφορές και προγνώσεις για περισσότερα από 4000 αεροδρόμια (δελτία METAR και TAF).

Οι διαθέσιμοι σταθμοί απεικονίζονται στο χάρτη με κίτρινες και κόκκινες κουκκίδες.

Μετακινήστε το ποντίκι πάνω από τις κουκκίδες για να δείτε το όνομα του σταθμού.

Στη συνέχεια, κάντε κλικ για να δείτε τις μετεωρολογικές αναφορές και τις προγνώσεις καιρού.

Για να αλλάξετε το χάρτη: κάντε κλικ στα πράσινα κουμπιά με τον μαύρο σταυρό για να ζουμάρετε, στο πράσινο κουμπί με την παύλα για να αφαιρέσετε το ζουμ ή στα πράσινα βέλη για να αντιπαραβάλλετε χάρτες.


METAR-TAF: